sensor_id;sensor_type;location;lat;lon;timestamp;P1;durP1;ratioP1;P2;durP2;ratioP2
40707;SDS011;26392;42.696;23.350;2022-12-08T00:01:19;41.28;;;17.80;;
40707;SDS011;26392;42.696;23.350;2022-12-08T00:03:46;37.45;;;17.00;;
40707;SDS011;26392;42.696;23.350;2022-12-08T00:06:34;37.72;;;16.55;;
40707;SDS011;26392;42.696;23.350;2022-12-08T00:09:19;41.40;;;16.55;;
40707;SDS011;26392;42.696;23.350;2022-12-08T00:12:09;37.42;;;16.70;;
40707;SDS011;26392;42.696;23.350;2022-12-08T00:17:02;45.53;;;18.98;;
40707;SDS011;26392;42.696;23.350;2022-12-08T00:19:29;46.45;;;19.45;;
40707;SDS011;26392;42.696;23.350;2022-12-08T00:21:56;47.40;;;20.45;;
40707;SDS011;26392;42.696;23.350;2022-12-08T00:24:22;41.08;;;18.83;;
40707;SDS011;26392;42.696;23.350;2022-12-08T00:26:50;45.67;;;19.00;;
40707;SDS011;26392;42.696;23.350;2022-12-08T00:29:16;45.90;;;18.27;;
40707;SDS011;26392;42.696;23.350;2022-12-08T00:31:41;44.40;;;17.98;;
40707;SDS011;26392;42.696;23.350;2022-12-08T00:34:07;41.42;;;17.65;;
40707;SDS011;26392;42.696;23.350;2022-12-08T00:36:32;44.25;;;18.10;;
40707;SDS011;26392;42.696;23.350;2022-12-08T00:38:58;39.97;;;17.08;;
40707;SDS011;26392;42.696;23.350;2022-12-08T00:41:24;41.70;;;17.08;;
40707;SDS011;26392;42.696;23.350;2022-12-08T00:44:10;41.92;;;16.33;;
40707;SDS011;26392;42.696;23.350;2022-12-08T00:46:38;36.67;;;17.58;;
40707;SDS011;26392;42.696;23.350;2022-12-08T00:49:04;44.97;;;17.80;;
40707;SDS011;26392;42.696;23.350;2022-12-08T00:51:30;40.25;;;16.27;;
40707;SDS011;26392;42.696;23.350;2022-12-08T00:53:56;48.92;;;19.23;;
40707;SDS011;26392;42.696;23.350;2022-12-08T00:56:21;42.78;;;17.23;;
40707;SDS011;26392;42.696;23.350;2022-12-08T00:58:47;43.28;;;19.25;;
40707;SDS011;26392;42.696;23.350;2022-12-08T01:01:12;41.35;;;17.35;;
40707;SDS011;26392;42.696;23.350;2022-12-08T01:03:40;45.70;;;18.92;;
40707;SDS011;26392;42.696;23.350;2022-12-08T01:06:06;39.90;;;18.25;;
40707;SDS011;26392;42.696;23.350;2022-12-08T01:08:32;49.20;;;19.80;;
40707;SDS011;26392;42.696;23.350;2022-12-08T01:11:06;52.15;;;18.55;;
40707;SDS011;26392;42.696;23.350;2022-12-08T01:13:33;46.92;;;19.80;;
40707;SDS011;26392;42.696;23.350;2022-12-08T01:15:59;46.50;;;20.05;;
40707;SDS011;26392;42.696;23.350;2022-12-08T01:18:28;46.55;;;20.17;;
40707;SDS011;26392;42.696;23.350;2022-12-08T01:20:54;50.28;;;20.27;;
40707;SDS011;26392;42.696;23.350;2022-12-08T01:23:19;50.17;;;20.63;;
40707;SDS011;26392;42.696;23.350;2022-12-08T01:25:44;54.88;;;20.02;;
40707;SDS011;26392;42.696;23.350;2022-12-08T01:28:10;50.97;;;20.25;;
40707;SDS011;26392;42.696;23.350;2022-12-08T01:30:38;43.20;;;18.85;;
40707;SDS011;26392;42.696;23.350;2022-12-08T01:33:04;54.38;;;19.65;;
40707;SDS011;26392;42.696;23.350;2022-12-08T01:35:30;43.67;;;18.75;;
40707;SDS011;26392;42.696;23.350;2022-12-08T01:37:55;43.85;;;17.83;;
40707;SDS011;26392;42.696;23.350;2022-12-08T01:40:21;45.38;;;18.38;;
40707;SDS011;26392;42.696;23.350;2022-12-08T01:42:46;39.70;;;17.30;;
40707;SDS011;26392;42.696;23.350;2022-12-08T01:45:14;41.88;;;17.35;;
40707;SDS011;26392;42.696;23.350;2022-12-08T01:47:47;45.47;;;18.35;;
40707;SDS011;26392;42.696;23.350;2022-12-08T01:50:14;41.65;;;17.60;;
40707;SDS011;26392;42.696;23.350;2022-12-08T01:52:52;46.95;;;18.48;;
40707;SDS011;26392;42.696;23.350;2022-12-08T01:55:25;39.78;;;17.25;;
40707;SDS011;26392;42.696;23.350;2022-12-08T01:58:02;38.85;;;17.02;;
40707;SDS011;26392;42.696;23.350;2022-12-08T02:00:41;50.13;;;19.08;;
40707;SDS011;26392;42.696;23.350;2022-12-08T02:03:08;72.30;;;31.08;;
40707;SDS011;26392;42.696;23.350;2022-12-08T02:05:38;51.83;;;22.35;;
40707;SDS011;26392;42.696;23.350;2022-12-08T02:08:06;54.65;;;20.63;;
40707;SDS011;26392;42.696;23.350;2022-12-08T02:10:34;48.42;;;19.77;;
40707;SDS011;26392;42.696;23.350;2022-12-08T02:13:01;52.00;;;18.08;;
40707;SDS011;26392;42.696;23.350;2022-12-08T02:31:37;40.40;;;17.63;;
40707;SDS011;26392;42.696;23.350;2022-12-08T02:37:05;39.85;;;16.65;;
40707;SDS011;26392;42.696;23.350;2022-12-08T02:42:24;40.97;;;16.33;;
40707;SDS011;26392;42.696;23.350;2022-12-08T02:44:56;42.72;;;17.23;;
40707;SDS011;26392;42.696;23.350;2022-12-08T02:47:33;46.92;;;18.63;;
40707;SDS011;26392;42.696;23.350;2022-12-08T02:49:59;52.08;;;19.63;;
40707;SDS011;26392;42.696;23.350;2022-12-08T02:54:53;52.13;;;19.90;;
40707;SDS011;26392;42.696;23.350;2022-12-08T03:00:06;50.15;;;19.75;;
40707;SDS011;26392;42.696;23.350;2022-12-08T03:05:29;39.50;;;17.30;;
40707;SDS011;26392;42.696;23.350;2022-12-08T03:08:07;44.55;;;17.77;;
40707;SDS011;26392;42.696;23.350;2022-12-08T03:15:40;45.03;;;18.05;;
40707;SDS011;26392;42.696;23.350;2022-12-08T03:18:10;47.78;;;18.98;;
40707;SDS011;26392;42.696;23.350;2022-12-08T03:20:39;45.60;;;18.50;;
40707;SDS011;26392;42.696;23.350;2022-12-08T03:23:07;51.55;;;21.33;;
40707;SDS011;26392;42.696;23.350;2022-12-08T03:25:35;61.00;;;22.58;;
40707;SDS011;26392;42.696;23.350;2022-12-08T03:28:05;58.58;;;24.33;;
40707;SDS011;26392;42.696;23.350;2022-12-08T03:30:31;62.55;;;24.20;;
40707;SDS011;26392;42.696;23.350;2022-12-08T03:33:03;63.58;;;27.25;;
40707;SDS011;26392;42.696;23.350;2022-12-08T03:35:34;78.47;;;28.00;;
40707;SDS011;26392;42.696;23.350;2022-12-08T03:38:07;75.93;;;31.27;;
40707;SDS011;26392;42.696;23.350;2022-12-08T03:40:34;69.50;;;28.08;;
40707;SDS011;26392;42.696;23.350;2022-12-08T03:43:00;69.10;;;27.63;;
40707;SDS011;26392;42.696;23.350;2022-12-08T03:45:26;71.18;;;27.67;;
40707;SDS011;26392;42.696;23.350;2022-12-08T03:47:52;67.55;;;26.52;;
40707;SDS011;26392;42.696;23.350;2022-12-08T03:50:17;64.03;;;25.73;;
40707;SDS011;26392;42.696;23.350;2022-12-08T03:52:42;68.35;;;25.95;;
40707;SDS011;26392;42.696;23.350;2022-12-08T03:55:08;71.53;;;28.23;;
40707;SDS011;26392;42.696;23.350;2022-12-08T03:57:34;70.25;;;27.35;;
40707;SDS011;26392;42.696;23.350;2022-12-08T03:59:59;67.22;;;28.42;;
40707;SDS011;26392;42.696;23.350;2022-12-08T04:02:25;72.03;;;26.77;;
40707;SDS011;26392;42.696;23.350;2022-12-08T04:04:50;72.13;;;27.55;;
40707;SDS011;26392;42.696;23.350;2022-12-08T04:07:15;69.25;;;27.52;;
40707;SDS011;26392;42.696;23.350;2022-12-08T04:09:41;66.68;;;27.08;;
40707;SDS011;26392;42.696;23.350;2022-12-08T04:12:07;74.00;;;26.27;;
40707;SDS011;26392;42.696;23.350;2022-12-08T04:14:33;78.15;;;29.55;;
40707;SDS011;26392;42.696;23.350;2022-12-08T04:16:58;73.43;;;31.15;;
40707;SDS011;26392;42.696;23.350;2022-12-08T04:19:24;75.00;;;31.10;;
40707;SDS011;26392;42.696;23.350;2022-12-08T04:21:49;67.50;;;30.17;;
40707;SDS011;26392;42.696;23.350;2022-12-08T04:24:15;86.05;;;32.53;;
40707;SDS011;26392;42.696;23.350;2022-12-08T04:26:40;67.30;;;29.20;;
40707;SDS011;26392;42.696;23.350;2022-12-08T04:29:05;73.70;;;30.60;;
40707;SDS011;26392;42.696;23.350;2022-12-08T04:31:31;72.05;;;29.25;;
40707;SDS011;26392;42.696;23.350;2022-12-08T04:33:56;79.80;;;30.80;;
40707;SDS011;26392;42.696;23.350;2022-12-08T04:36:21;80.47;;;34.13;;
40707;SDS011;26392;42.696;23.350;2022-12-08T04:38:47;87.13;;;33.00;;
40707;SDS011;26392;42.696;23.350;2022-12-08T04:41:12;88.75;;;32.90;;
40707;SDS011;26392;42.696;23.350;2022-12-08T04:43:38;82.00;;;34.30;;
40707;SDS011;26392;42.696;23.350;2022-12-08T04:46:07;83.78;;;34.92;;
40707;SDS011;26392;42.696;23.350;2022-12-08T04:48:33;85.30;;;33.83;;
40707;SDS011;26392;42.696;23.350;2022-12-08T04:50:58;86.63;;;36.08;;
40707;SDS011;26392;42.696;23.350;2022-12-08T04:53:24;94.18;;;35.65;;
40707;SDS011;26392;42.696;23.350;2022-12-08T04:55:50;85.07;;;36.03;;
40707;SDS011;26392;42.696;23.350;2022-12-08T04:58:17;91.97;;;36.85;;
40707;SDS011;26392;42.696;23.350;2022-12-08T05:00:43;106.20;;;41.45;;
40707;SDS011;26392;42.696;23.350;2022-12-08T05:03:10;99.15;;;38.90;;
40707;SDS011;26392;42.696;23.350;2022-12-08T05:05:35;94.43;;;41.33;;
40707;SDS011;26392;42.696;23.350;2022-12-08T05:08:01;100.00;;;40.85;;
40707;SDS011;26392;42.696;23.350;2022-12-08T05:10:26;100.95;;;42.00;;
40707;SDS011;26392;42.696;23.350;2022-12-08T05:12:52;92.43;;;37.30;;
40707;SDS011;26392;42.696;23.350;2022-12-08T05:15:17;96.03;;;39.33;;
40707;SDS011;26392;42.696;23.350;2022-12-08T05:17:42;85.43;;;35.53;;
40707;SDS011;26392;42.696;23.350;2022-12-08T05:20:08;102.18;;;40.75;;
40707;SDS011;26392;42.696;23.350;2022-12-08T05:22:34;124.63;;;52.72;;
40707;SDS011;26392;42.696;23.350;2022-12-08T05:24:59;104.10;;;47.40;;
40707;SDS011;26392;42.696;23.350;2022-12-08T05:27:25;118.43;;;47.55;;
40707;SDS011;26392;42.696;23.350;2022-12-08T05:29:50;104.68;;;48.47;;
40707;SDS011;26392;42.696;23.350;2022-12-08T05:32:16;107.63;;;46.03;;
40707;SDS011;26392;42.696;23.350;2022-12-08T05:34:41;92.75;;;40.17;;
40707;SDS011;26392;42.696;23.350;2022-12-08T05:37:07;102.03;;;43.40;;
40707;SDS011;26392;42.696;23.350;2022-12-08T05:39:32;92.82;;;38.00;;
40707;SDS011;26392;42.696;23.350;2022-12-08T05:41:58;103.13;;;41.45;;
40707;SDS011;26392;42.696;23.350;2022-12-08T05:44:23;93.53;;;39.78;;
40707;SDS011;26392;42.696;23.350;2022-12-08T05:46:49;91.28;;;42.33;;
40707;SDS011;26392;42.696;23.350;2022-12-08T05:49:15;82.38;;;38.15;;
40707;SDS011;26392;42.696;23.350;2022-12-08T05:51:40;82.68;;;36.35;;
40707;SDS011;26392;42.696;23.350;2022-12-08T05:54:06;90.35;;;37.47;;
40707;SDS011;26392;42.696;23.350;2022-12-08T05:56:31;84.82;;;35.95;;
40707;SDS011;26392;42.696;23.350;2022-12-08T05:58:57;86.32;;;35.50;;
40707;SDS011;26392;42.696;23.350;2022-12-08T06:01:23;90.78;;;33.72;;
40707;SDS011;26392;42.696;23.350;2022-12-08T06:03:49;77.82;;;34.15;;
40707;SDS011;26392;42.696;23.350;2022-12-08T06:06:15;86.43;;;35.05;;
40707;SDS011;26392;42.696;23.350;2022-12-08T06:08:41;73.93;;;32.45;;
40707;SDS011;26392;42.696;23.350;2022-12-08T06:11:07;74.90;;;32.33;;
40707;SDS011;26392;42.696;23.350;2022-12-08T06:13:32;71.32;;;31.55;;
40707;SDS011;26392;42.696;23.350;2022-12-08T06:16:05;87.63;;;33.90;;
40707;SDS011;26392;42.696;23.350;2022-12-08T06:18:30;75.07;;;30.83;;
40707;SDS011;26392;42.696;23.350;2022-12-08T06:21:06;74.60;;;34.00;;
40707;SDS011;26392;42.696;23.350;2022-12-08T06:23:33;86.00;;;34.42;;
40707;SDS011;26392;42.696;23.350;2022-12-08T06:25:59;88.10;;;36.15;;
40707;SDS011;26392;42.696;23.350;2022-12-08T06:28:26;94.30;;;39.78;;
40707;SDS011;26392;42.696;23.350;2022-12-08T06:30:51;94.22;;;39.63;;
40707;SDS011;26392;42.696;23.350;2022-12-08T06:33:17;105.05;;;46.22;;
40707;SDS011;26392;42.696;23.350;2022-12-08T06:35:42;110.95;;;46.47;;
40707;SDS011;26392;42.696;23.350;2022-12-08T06:38:07;128.63;;;52.60;;
40707;SDS011;26392;42.696;23.350;2022-12-08T06:40:33;119.32;;;50.88;;
40707;SDS011;26392;42.696;23.350;2022-12-08T06:42:58;115.68;;;46.75;;
40707;SDS011;26392;42.696;23.350;2022-12-08T06:45:24;108.75;;;43.53;;
40707;SDS011;26392;42.696;23.350;2022-12-08T06:47:49;86.25;;;35.00;;
40707;SDS011;26392;42.696;23.350;2022-12-08T06:50:14;68.47;;;27.85;;
40707;SDS011;26392;42.696;23.350;2022-12-08T06:52:40;74.05;;;31.25;;
40707;SDS011;26392;42.696;23.350;2022-12-08T06:55:06;66.35;;;29.45;;
40707;SDS011;26392;42.696;23.350;2022-12-08T06:57:33;65.20;;;28.30;;
40707;SDS011;26392;42.696;23.350;2022-12-08T06:59:58;58.90;;;26.23;;
40707;SDS011;26392;42.696;23.350;2022-12-08T07:02:24;54.45;;;23.55;;
40707;SDS011;26392;42.696;23.350;2022-12-08T07:04:50;56.70;;;23.80;;
40707;SDS011;26392;42.696;23.350;2022-12-08T07:07:15;54.20;;;21.75;;
40707;SDS011;26392;42.696;23.350;2022-12-08T07:09:41;53.20;;;22.02;;
40707;SDS011;26392;42.696;23.350;2022-12-08T07:12:06;53.30;;;25.75;;
40707;SDS011;26392;42.696;23.350;2022-12-08T07:14:32;51.40;;;23.48;;
40707;SDS011;26392;42.696;23.350;2022-12-08T07:16:57;72.00;;;31.30;;
40707;SDS011;26392;42.696;23.350;2022-12-08T07:19:22;69.10;;;29.42;;
40707;SDS011;26392;42.696;23.350;2022-12-08T07:21:48;78.95;;;32.70;;
40707;SDS011;26392;42.696;23.350;2022-12-08T07:24:13;71.53;;;29.50;;
40707;SDS011;26392;42.696;23.350;2022-12-08T07:26:39;69.53;;;30.85;;
40707;SDS011;26392;42.696;23.350;2022-12-08T07:29:05;96.80;;;43.35;;
40707;SDS011;26392;42.696;23.350;2022-12-08T07:31:30;108.50;;;41.72;;
40707;SDS011;26392;42.696;23.350;2022-12-08T07:33:56;112.45;;;45.15;;
40707;SDS011;26392;42.696;23.350;2022-12-08T07:36:22;109.18;;;44.63;;
40707;SDS011;26392;42.696;23.350;2022-12-08T07:38:48;99.07;;;43.33;;
40707;SDS011;26392;42.696;23.350;2022-12-08T07:41:16;105.20;;;43.50;;
40707;SDS011;26392;42.696;23.350;2022-12-08T07:43:42;104.15;;;42.30;;
40707;SDS011;26392;42.696;23.350;2022-12-08T07:46:10;113.57;;;43.20;;
40707;SDS011;26392;42.696;23.350;2022-12-08T07:48:37;86.88;;;39.17;;
40707;SDS011;26392;42.696;23.350;2022-12-08T07:51:03;95.70;;;42.40;;
40707;SDS011;26392;42.696;23.350;2022-12-08T07:53:29;89.82;;;40.88;;
40707;SDS011;26392;42.696;23.350;2022-12-08T07:55:55;103.68;;;41.08;;
40707;SDS011;26392;42.696;23.350;2022-12-08T07:58:21;99.18;;;41.67;;
40707;SDS011;26392;42.696;23.350;2022-12-08T08:00:47;88.53;;;38.63;;
40707;SDS011;26392;42.696;23.350;2022-12-08T08:03:12;91.18;;;40.17;;
40707;SDS011;26392;42.696;23.350;2022-12-08T08:05:38;98.30;;;39.78;;
40707;SDS011;26392;42.696;23.350;2022-12-08T08:08:03;89.55;;;37.88;;
40707;SDS011;26392;42.696;23.350;2022-12-08T08:10:29;92.38;;;39.08;;
40707;SDS011;26392;42.696;23.350;2022-12-08T08:12:57;86.40;;;37.67;;
40707;SDS011;26392;42.696;23.350;2022-12-08T08:15:24;87.38;;;37.63;;
40707;SDS011;26392;42.696;23.350;2022-12-08T08:17:50;93.28;;;39.00;;
40707;SDS011;26392;42.696;23.350;2022-12-08T08:20:16;83.00;;;35.58;;
40707;SDS011;26392;42.696;23.350;2022-12-08T08:22:43;88.93;;;33.20;;
40707;SDS011;26392;42.696;23.350;2022-12-08T08:25:10;76.22;;;30.98;;
40707;SDS011;26392;42.696;23.350;2022-12-08T08:27:35;78.32;;;33.17;;
40707;SDS011;26392;42.696;23.350;2022-12-08T08:30:00;69.32;;;31.88;;
40707;SDS011;26392;42.696;23.350;2022-12-08T08:32:26;56.90;;;26.02;;
40707;SDS011;26392;42.696;23.350;2022-12-08T08:34:51;49.25;;;23.70;;
40707;SDS011;26392;42.696;23.350;2022-12-08T08:37:17;51.53;;;22.88;;
40707;SDS011;26392;42.696;23.350;2022-12-08T08:39:42;45.65;;;20.85;;
40707;SDS011;26392;42.696;23.350;2022-12-08T08:42:07;48.10;;;20.23;;
40707;SDS011;26392;42.696;23.350;2022-12-08T08:44:33;46.95;;;18.85;;
40707;SDS011;26392;42.696;23.350;2022-12-08T08:46:58;41.92;;;19.40;;
40707;SDS011;26392;42.696;23.350;2022-12-08T08:49:24;47.60;;;21.63;;
40707;SDS011;26392;42.696;23.350;2022-12-08T08:51:49;64.65;;;29.08;;
40707;SDS011;26392;42.696;23.350;2022-12-08T08:54:15;75.57;;;31.83;;
40707;SDS011;26392;42.696;23.350;2022-12-08T08:56:40;97.93;;;35.92;;
40707;SDS011;26392;42.696;23.350;2022-12-08T08:59:06;80.60;;;36.33;;
40707;SDS011;26392;42.696;23.350;2022-12-08T09:01:32;88.03;;;39.75;;
40707;SDS011;26392;42.696;23.350;2022-12-08T09:03:58;91.75;;;36.65;;
40707;SDS011;26392;42.696;23.350;2022-12-08T09:06:23;86.15;;;35.70;;
40707;SDS011;26392;42.696;23.350;2022-12-08T09:08:49;78.90;;;34.92;;
40707;SDS011;26392;42.696;23.350;2022-12-08T09:11:15;84.55;;;39.28;;
40707;SDS011;26392;42.696;23.350;2022-12-08T09:13:42;80.82;;;36.40;;
40707;SDS011;26392;42.696;23.350;2022-12-08T09:16:09;89.00;;;35.42;;
40707;SDS011;26392;42.696;23.350;2022-12-08T09:18:35;81.30;;;37.63;;
40707;SDS011;26392;42.696;23.350;2022-12-08T09:21:05;87.80;;;42.22;;
40707;SDS011;26392;42.696;23.350;2022-12-08T09:23:32;110.85;;;51.40;;
40707;SDS011;26392;42.696;23.350;2022-12-08T09:25:57;117.57;;;55.38;;
40707;SDS011;26392;42.696;23.350;2022-12-08T09:28:22;123.30;;;53.55;;
40707;SDS011;26392;42.696;23.350;2022-12-08T09:30:49;111.60;;;49.60;;
40707;SDS011;26392;42.696;23.350;2022-12-08T09:33:15;102.78;;;46.92;;
40707;SDS011;26392;42.696;23.350;2022-12-08T09:35:41;98.75;;;38.70;;
40707;SDS011;26392;42.696;23.350;2022-12-08T09:38:06;104.93;;;42.83;;
40707;SDS011;26392;42.696;23.350;2022-12-08T09:40:32;96.38;;;41.53;;
40707;SDS011;26392;42.696;23.350;2022-12-08T09:43:17;86.25;;;40.60;;
40707;SDS011;26392;42.696;23.350;2022-12-08T09:45:53;81.18;;;39.13;;
40707;SDS011;26392;42.696;23.350;2022-12-08T09:48:23;78.35;;;36.70;;
40707;SDS011;26392;42.696;23.350;2022-12-08T09:50:57;89.38;;;37.58;;
40707;SDS011;26392;42.696;23.350;2022-12-08T09:53:33;89.97;;;38.70;;
40707;SDS011;26392;42.696;23.350;2022-12-08T09:58:44;83.88;;;36.30;;
40707;SDS011;26392;42.696;23.350;2022-12-08T10:01:14;75.53;;;35.30;;
40707;SDS011;26392;42.696;23.350;2022-12-08T10:03:40;69.18;;;31.33;;
40707;SDS011;26392;42.696;23.350;2022-12-08T10:11:35;59.72;;;27.23;;
40707;SDS011;26392;42.696;23.350;2022-12-08T10:16:45;63.40;;;25.27;;
40707;SDS011;26392;42.696;23.350;2022-12-08T10:19:16;52.22;;;24.77;;
40707;SDS011;26392;42.696;23.350;2022-12-08T10:21:45;61.78;;;24.75;;
40707;SDS011;26392;42.696;23.350;2022-12-08T10:27:14;59.38;;;26.00;;
40707;SDS011;26392;42.696;23.350;2022-12-08T10:29:40;53.05;;;23.55;;
40707;SDS011;26392;42.696;23.350;2022-12-08T10:32:12;43.47;;;22.67;;
40707;SDS011;26392;42.696;23.350;2022-12-08T10:34:57;45.90;;;21.33;;
40707;SDS011;26392;42.696;23.350;2022-12-08T10:37:33;43.30;;;21.02;;
40707;SDS011;26392;42.696;23.350;2022-12-08T10:40:20;47.15;;;21.20;;
40707;SDS011;26392;42.696;23.350;2022-12-08T10:42:51;44.70;;;20.02;;
40707;SDS011;26392;42.696;23.350;2022-12-08T10:45:21;38.00;;;18.20;;
40707;SDS011;26392;42.696;23.350;2022-12-08T10:48:05;32.40;;;15.95;;
40707;SDS011;26392;42.696;23.350;2022-12-08T10:53:27;33.17;;;16.13;;
40707;SDS011;26392;42.696;23.350;2022-12-08T10:58:35;27.50;;;13.63;;
40707;SDS011;26392;42.696;23.350;2022-12-08T11:08:50;31.27;;;13.38;;
40707;SDS011;26392;42.696;23.350;2022-12-08T11:11:18;29.23;;;13.38;;
40707;SDS011;26392;42.696;23.350;2022-12-08T11:13:45;30.30;;;13.20;;
40707;SDS011;26392;42.696;23.350;2022-12-08T11:16:14;30.17;;;13.55;;
40707;SDS011;26392;42.696;23.350;2022-12-08T11:18:42;24.98;;;12.82;;
40707;SDS011;26392;42.696;23.350;2022-12-08T11:21:14;30.55;;;13.60;;
40707;SDS011;26392;42.696;23.350;2022-12-08T11:23:42;35.17;;;13.77;;
40707;SDS011;26392;42.696;23.350;2022-12-08T11:28:57;33.42;;;13.73;;
40707;SDS011;26392;42.696;23.350;2022-12-08T11:31:32;32.58;;;15.20;;
40707;SDS011;26392;42.696;23.350;2022-12-08T11:34:02;34.30;;;14.52;;
40707;SDS011;26392;42.696;23.350;2022-12-08T11:36:30;32.45;;;15.55;;
40707;SDS011;26392;42.696;23.350;2022-12-08T11:39:00;29.52;;;14.73;;
40707;SDS011;26392;42.696;23.350;2022-12-08T11:41:38;31.10;;;14.90;;
40707;SDS011;26392;42.696;23.350;2022-12-08T11:47:24;42.75;;;17.17;;
40707;SDS011;26392;42.696;23.350;2022-12-08T11:50:17;30.10;;;13.38;;
40707;SDS011;26392;42.696;23.350;2022-12-08T11:52:46;31.33;;;14.15;;
40707;SDS011;26392;42.696;23.350;2022-12-08T11:57:39;28.70;;;13.85;;
40707;SDS011;26392;42.696;23.350;2022-12-08T12:00:05;25.67;;;12.77;;
40707;SDS011;26392;42.696;23.350;2022-12-08T12:02:34;29.10;;;13.02;;
40707;SDS011;26392;42.696;23.350;2022-12-08T12:05:08;27.95;;;12.68;;
40707;SDS011;26392;42.696;23.350;2022-12-08T12:18:28;20.05;;;10.15;;
40707;SDS011;26392;42.696;23.350;2022-12-08T12:23:41;22.70;;;10.18;;
40707;SDS011;26392;42.696;23.350;2022-12-08T12:26:17;27.17;;;10.77;;
40707;SDS011;26392;42.696;23.350;2022-12-08T12:31:17;21.63;;;9.93;;
40707;SDS011;26392;42.696;23.350;2022-12-08T12:33:47;25.33;;;11.18;;
40707;SDS011;26392;42.696;23.350;2022-12-08T12:36:14;27.20;;;11.63;;
40707;SDS011;26392;42.696;23.350;2022-12-08T12:38:44;22.13;;;10.82;;
40707;SDS011;26392;42.696;23.350;2022-12-08T12:52:03;20.38;;;9.32;;
40707;SDS011;26392;42.696;23.350;2022-12-08T13:05:02;25.48;;;10.63;;
40707;SDS011;26392;42.696;23.350;2022-12-08T13:07:57;24.08;;;10.60;;
40707;SDS011;26392;42.696;23.350;2022-12-08T13:13:00;30.50;;;14.27;;
40707;SDS011;26392;42.696;23.350;2022-12-08T13:18:39;37.00;;;15.97;;
40707;SDS011;26392;42.696;23.350;2022-12-08T13:26:12;46.47;;;20.02;;
40707;SDS011;26392;42.696;23.350;2022-12-08T13:34:14;45.25;;;22.63;;
40707;SDS011;26392;42.696;23.350;2022-12-08T13:36:54;52.17;;;24.77;;
40707;SDS011;26392;42.696;23.350;2022-12-08T13:39:28;36.80;;;18.52;;
40707;SDS011;26392;42.696;23.350;2022-12-08T13:42:01;38.00;;;16.63;;
40707;SDS011;26392;42.696;23.350;2022-12-08T13:44:34;34.97;;;16.65;;
40707;SDS011;26392;42.696;23.350;2022-12-08T13:47:05;27.13;;;13.85;;
40707;SDS011;26392;42.696;23.350;2022-12-08T13:49:38;24.80;;;11.50;;
40707;SDS011;26392;42.696;23.350;2022-12-08T13:52:17;23.90;;;11.52;;
40707;SDS011;26392;42.696;23.350;2022-12-08T13:54:51;30.40;;;13.20;;
40707;SDS011;26392;42.696;23.350;2022-12-08T13:57:25;27.05;;;12.68;;
40707;SDS011;26392;42.696;23.350;2022-12-08T14:00:01;35.40;;;11.90;;
40707;SDS011;26392;42.696;23.350;2022-12-08T14:02:40;25.95;;;12.40;;
40707;SDS011;26392;42.696;23.350;2022-12-08T14:05:10;34.65;;;13.68;;
40707;SDS011;26392;42.696;23.350;2022-12-08T14:07:36;33.80;;;13.98;;
40707;SDS011;26392;42.696;23.350;2022-12-08T14:10:26;33.95;;;13.45;;
40707;SDS011;26392;42.696;23.350;2022-12-08T14:12:56;36.63;;;15.70;;
40707;SDS011;26392;42.696;23.350;2022-12-08T14:15:24;36.90;;;16.27;;
40707;SDS011;26392;42.696;23.350;2022-12-08T14:17:51;34.63;;;14.68;;
40707;SDS011;26392;42.696;23.350;2022-12-08T14:20:24;33.45;;;14.57;;
40707;SDS011;26392;42.696;23.350;2022-12-08T14:22:52;39.20;;;16.50;;
40707;SDS011;26392;42.696;23.350;2022-12-08T14:25:18;41.00;;;17.73;;
40707;SDS011;26392;42.696;23.350;2022-12-08T14:27:44;53.88;;;21.35;;
40707;SDS011;26392;42.696;23.350;2022-12-08T14:32:38;56.17;;;22.83;;
40707;SDS011;26392;42.696;23.350;2022-12-08T14:37:37;52.22;;;21.45;;
40707;SDS011;26392;42.696;23.350;2022-12-08T14:40:09;46.28;;;21.38;;
40707;SDS011;26392;42.696;23.350;2022-12-08T14:42:49;52.40;;;24.05;;
40707;SDS011;26392;42.696;23.350;2022-12-08T14:53:20;62.20;;;25.45;;
40707;SDS011;26392;42.696;23.350;2022-12-08T14:55:46;60.83;;;25.85;;
40707;SDS011;26392;42.696;23.350;2022-12-08T14:58:17;56.60;;;26.05;;
40707;SDS011;26392;42.696;23.350;2022-12-08T15:00:49;62.17;;;26.23;;
40707;SDS011;26392;42.696;23.350;2022-12-08T15:03:18;65.10;;;25.52;;
40707;SDS011;26392;42.696;23.350;2022-12-08T15:05:48;51.10;;;20.98;;
40707;SDS011;26392;42.696;23.350;2022-12-08T15:08:15;44.63;;;18.15;;
40707;SDS011;26392;42.696;23.350;2022-12-08T15:10:41;45.97;;;18.58;;
40707;SDS011;26392;42.696;23.350;2022-12-08T15:15:44;56.65;;;22.63;;
40707;SDS011;26392;42.696;23.350;2022-12-08T15:21:04;41.35;;;20.00;;
40707;SDS011;26392;42.696;23.350;2022-12-08T15:23:38;54.40;;;21.35;;
40707;SDS011;26392;42.696;23.350;2022-12-08T15:26:08;45.10;;;20.35;;
40707;SDS011;26392;42.696;23.350;2022-12-08T15:28:43;52.38;;;22.38;;
40707;SDS011;26392;42.696;23.350;2022-12-08T15:31:09;53.28;;;21.85;;
40707;SDS011;26392;42.696;23.350;2022-12-08T15:33:35;70.72;;;27.00;;
40707;SDS011;26392;42.696;23.350;2022-12-08T15:36:01;55.85;;;23.10;;
40707;SDS011;26392;42.696;23.350;2022-12-08T15:38:27;78.20;;;27.38;;
40707;SDS011;26392;42.696;23.350;2022-12-08T15:40:54;59.42;;;22.98;;
40707;SDS011;26392;42.696;23.350;2022-12-08T15:43:20;38.63;;;15.73;;
40707;SDS011;26392;42.696;23.350;2022-12-08T15:45:46;34.88;;;16.77;;
40707;SDS011;26392;42.696;23.350;2022-12-08T15:48:23;45.63;;;19.63;;
40707;SDS011;26392;42.696;23.350;2022-12-08T15:50:51;78.43;;;29.50;;
40707;SDS011;26392;42.696;23.350;2022-12-08T15:53:16;62.85;;;25.58;;
40707;SDS011;26392;42.696;23.350;2022-12-08T15:55:42;60.50;;;23.95;;
40707;SDS011;26392;42.696;23.350;2022-12-08T15:58:18;47.38;;;20.20;;
40707;SDS011;26392;42.696;23.350;2022-12-08T16:00:46;40.30;;;19.38;;
40707;SDS011;26392;42.696;23.350;2022-12-08T16:03:19;50.08;;;20.38;;
40707;SDS011;26392;42.696;23.350;2022-12-08T16:05:48;51.65;;;23.23;;
40707;SDS011;26392;42.696;23.350;2022-12-08T16:08:13;42.10;;;18.45;;
40707;SDS011;26392;42.696;23.350;2022-12-08T16:10:43;50.38;;;22.05;;
40707;SDS011;26392;42.696;23.350;2022-12-08T16:13:15;47.30;;;23.13;;
40707;SDS011;26392;42.696;23.350;2022-12-08T16:16:01;54.88;;;23.40;;
40707;SDS011;26392;42.696;23.350;2022-12-08T16:18:37;49.85;;;23.15;;
40707;SDS011;26392;42.696;23.350;2022-12-08T16:21:04;42.83;;;19.10;;
40707;SDS011;26392;42.696;23.350;2022-12-08T16:23:30;31.92;;;15.30;;
40707;SDS011;26392;42.696;23.350;2022-12-08T16:25:56;34.40;;;14.52;;
40707;SDS011;26392;42.696;23.350;2022-12-08T16:28:24;34.80;;;13.40;;
40707;SDS011;26392;42.696;23.350;2022-12-08T16:30:49;52.30;;;22.85;;
40707;SDS011;26392;42.696;23.350;2022-12-08T16:33:15;34.40;;;16.40;;
40707;SDS011;26392;42.696;23.350;2022-12-08T16:35:40;29.52;;;14.00;;
40707;SDS011;26392;42.696;23.350;2022-12-08T16:38:06;25.80;;;12.48;;
40707;SDS011;26392;42.696;23.350;2022-12-08T16:40:32;30.48;;;12.25;;